createdAt,value
2018-11-02T00:03:16.969Z,10.4
2018-11-02T00:19:56.305Z,10.4
2018-11-02T00:36:35.739Z,10.4
2018-11-02T00:53:15.297Z,10.4
2018-11-02T01:09:54.631Z,10.7
2018-11-02T01:26:34.172Z,10.7
2018-11-02T01:43:13.565Z,10.4
2018-11-02T01:59:52.802Z,10.1
2018-11-02T02:33:11.443Z,10.4
2018-11-02T02:49:50.838Z,10.4
2018-11-02T03:06:30.342Z,10.7
2018-11-02T03:23:10.539Z,10.7
2018-11-02T03:39:49.424Z,10.7
2018-11-02T03:56:30.225Z,10.7
2018-11-02T04:13:08.574Z,10.7
2018-11-02T04:29:48.152Z,10.7
2018-11-02T04:46:27.738Z,10.7
2018-11-02T05:03:07.221Z,10.4
2018-11-02T05:19:46.603Z,10.1
2018-11-02T05:36:26.040Z,10.1
2018-11-02T05:53:04.866Z,10.1
2018-11-02T06:09:44.002Z,9.8
2018-11-02T06:26:22.855Z,9.8
2018-11-02T06:43:01.713Z,9.8
2018-11-02T06:59:40.808Z,9.8
2018-11-02T07:16:19.465Z,9.8
2018-11-02T07:32:58.947Z,9.8
2018-11-02T07:49:37.468Z,9.8
2018-11-02T08:06:16.415Z,10.1
2018-11-02T08:22:55.790Z,10.1
2018-11-02T08:39:34.976Z,10.4
2018-11-02T08:56:14.339Z,10.4
2018-11-02T09:12:53.728Z,10.7
2018-11-02T09:29:33.403Z,10.7
2018-11-02T09:46:13.568Z,11.0
2018-11-02T10:02:54.459Z,11.4
2018-11-02T10:16:14.103Z,10.7
2018-11-02T10:32:54.105Z,10.7
2018-11-02T10:49:34.310Z,11.0
2018-11-02T11:06:14.465Z,11.0
2018-11-02T11:22:54.640Z,11.4
2018-11-02T11:36:14.653Z,10.7
2018-11-02T11:52:54.269Z,10.7
2018-11-02T12:06:14.280Z,11.4
2018-11-02T12:22:54.351Z,11.0
2018-11-02T12:39:34.584Z,11.7
2018-11-02T12:56:15.316Z,12.0
2018-11-02T13:12:56.239Z,11.7
2018-11-02T13:29:35.993Z,11.4
2018-11-02T13:46:16.116Z,11.0
2018-11-02T14:02:55.975Z,10.7
2018-11-02T14:19:36.355Z,10.7
2018-11-02T14:36:15.787Z,11.0
2018-11-02T14:52:55.555Z,10.7
2018-11-02T15:09:35.329Z,10.7
2018-11-02T15:26:14.883Z,10.4
2018-11-02T15:42:55.321Z,10.1
2018-11-02T15:59:33.240Z,9.8
2018-11-02T16:16:12.010Z,9.1
2018-11-02T16:32:50.392Z,8.8
2018-11-02T16:49:28.609Z,8.5
2018-11-02T17:06:06.634Z,8.5
2018-11-02T17:22:44.642Z,8.2
2018-11-02T17:39:22.342Z,8.2
2018-11-02T17:56:00.079Z,7.8
2018-11-02T18:12:37.636Z,7.5
2018-11-02T18:29:14.996Z,7.5
2018-11-02T18:45:52.345Z,7.2
2018-11-02T19:02:29.111Z,6.9
2018-11-02T19:19:06.104Z,6.9
2018-11-02T19:35:42.911Z,6.6
2018-11-02T19:52:19.482Z,6.6
2018-11-02T20:08:56.155Z,6.2
2018-11-02T20:25:32.247Z,6.2
2018-11-02T20:42:08.435Z,6.2
2018-11-02T20:58:44.187Z,5.9
2018-11-02T21:15:20.052Z,5.9
2018-11-02T21:31:55.942Z,5.9
2018-11-02T21:48:31.727Z,5.6
2018-11-02T22:05:07.338Z,5.6
2018-11-02T22:21:43.043Z,5.3
2018-11-02T22:38:18.280Z,5.3
2018-11-02T22:54:53.639Z,5.0
2018-11-02T23:11:29.010Z,5.3
2018-11-02T23:28:04.376Z,5.0
2018-11-02T23:44:39.753Z,5.0
